| time (UTC) | temp F | wind direction | speed MPH | gust MPH | rain 1hr in | rain 24hr in | rain mn in | humidity % | barometer mb |
| 20260506090809 | 40 | 157 | 0.0 | 0.0 | 0.00 | 0.08 | 0.00 | 95 | 1021.4 |
| 20260506085711 | 40 | 157 | 0.0 | 0.0 | 0.00 | 0.08 | 0.00 | 96 | 1021.5 |
| 20260506084711 | 40 | 157 | 0.0 | 0.0 | 0.00 | 0.08 | 0.00 | 96 | 1021.5 |
| 20260506083711 | 40 | 157 | 0.0 | 0.0 | 0.00 | 0.08 | 0.00 | 95 | 1021.6 |
| 20260506082712 | 40 | 157 | 0.0 | 0.0 | 0.00 | 0.08 | 0.00 | 95 | 1021.4 |
| 20260506080811 | 41 | 157 | 0.0 | 0.0 | 0.00 | 0.08 | 0.00 | 95 | 1021.5 |
| 20260506072727 | 42 | 157 | 0.0 | 0.0 | 0.00 | 0.08 | 0.00 | 95 | 1021.4 |
| 20260506071812 | 43 | 157 | 0.0 | 0.0 | 0.00 | 0.08 | 0.00 | 95 | 1021.3 |
| 20260506061816 | 43 | 157 | 0.0 | 0.0 | 0.00 | 0.08 | 0.08 | 93 | 1020.7 |
| 20260506060914 | 43 | 157 | 0.0 | 0.0 | 0.00 | 0.08 | 0.08 | 94 | 1020.8 |
| 20260506050817 | 44 | 157 | 0.0 | 0.0 | 0.00 | 0.08 | 0.08 | 93 | 1020.1 |
| 20260506044815 | 44 | 157 | 0.0 | 0.0 | 0.00 | 0.08 | 0.08 | 92 | 1020.0 |
| 20260506042814 | 44 | 157 | 0.0 | 0.0 | 0.00 | 0.08 | 0.08 | 93 | 1020.0 |
| 20260506041816 | 44 | 157 | 0.0 | 0.0 | 0.00 | 0.08 | 0.08 | 92 | 1019.9 |
| 20260506041730 | 44 | 157 | 0.0 | 0.0 | 0.00 | 0.08 | 0.08 | 91 | 1019.9 |
| 20260506040816 | 44 | 157 | 0.0 | 0.0 | 0.00 | 0.08 | 0.08 | 92 | 1019.8 |
| 20260506033815 | 44 | 157 | 0.0 | 0.0 | 0.00 | 0.08 | 0.08 | 91 | 1019.6 |
| 20260506032816 | 44 | 157 | 0.0 | 0.0 | 0.00 | 0.08 | 0.08 | 90 | 1019.4 |
| 20260506031815 | 45 | 157 | 0.0 | 0.0 | 0.00 | 0.08 | 0.08 | 91 | 1019.1 |
| 20260506030815 | 45 | 157 | 0.0 | 0.0 | 0.00 | 0.08 | 0.08 | 91 | 1018.9 |
| 20260506025816 | 45 | 157 | 0.0 | 0.0 | 0.00 | 0.08 | 0.08 | 91 | 1019.0 |
| 20260506024816 | 45 | 157 | 0.0 | 0.0 | 0.00 | 0.08 | 0.08 | 90 | 1018.9 |
| 20260506023915 | 45 | 157 | 0.0 | 0.0 | 0.00 | 0.08 | 0.08 | 90 | 1018.9 |
| 20260506022916 | 45 | 157 | 0.0 | 0.0 | 0.00 | 0.08 | 0.08 | 90 | 1018.8 |
| 20260506021916 | 45 | 157 | 0.0 | 0.0 | 0.00 | 0.08 | 0.08 | 90 | 1018.6 |
| 20260506020914 | 45 | 157 | 0.0 | 0.0 | 0.00 | 0.08 | 0.08 | 90 | 1018.6 |
| 20260506015915 | 45 | 157 | 0.0 | 0.0 | 0.00 | 0.08 | 0.08 | 90 | 1018.5 |
| 20260506014930 | 45 | 157 | 0.0 | 0.0 | 0.00 | 0.08 | 0.08 | 90 | 1018.2 |
| 20260506013015 | 45 | 180 | 1.0 | 2.0 | 0.00 | 0.08 | 0.08 | 90 | 1018.2 |
| 20260506012030 | 45 | 112 | 0.0 | 2.0 | 0.00 | 0.08 | 0.08 | 92 | 1018.2 |
| 20260506010115 | 45 | 67 | 0.0 | 0.0 | 0.00 | 0.08 | 0.08 | 91 | 1018.1 |
| 20260506010014 | 45 | 67 | 0.0 | 0.0 | 0.00 | 0.08 | 0.08 | 91 | 1018.2 |
| 20260506005015 | 45 | 180 | 0.0 | 0.0 | 0.00 | 0.08 | 0.08 | 91 | 1018.2 |
| 20260506004016 | 44 | 180 | 0.0 | 0.0 | 0.00 | 0.08 | 0.08 | 91 | 1018.1 |
| 20260506003015 | 44 | 179 | 0.0 | 1.0 | 0.00 | 0.08 | 0.08 | 92 | 1018.1 |
| 20260506002015 | 44 | 180 | 0.0 | 0.0 | 0.00 | 0.08 | 0.08 | 92 | 1018.2 |
| 20260505235116 | 43 | 112 | 0.0 | 0.0 | 0.00 | 0.08 | 0.08 | 93 | 1018.3 |
| 20260505234214 | 43 | 112 | 0.0 | 0.0 | 0.00 | 0.08 | 0.08 | 92 | 1018.3 |
| 20260505233230 | 43 | 112 | 0.0 | 0.0 | 0.00 | 0.08 | 0.08 | 92 | 1018.4 |
| 20260505232116 | 43 | 112 | 0.0 | 0.0 | 0.00 | 0.09 | 0.08 | 91 | 1018.6 |
| 20260505231114 | 43 | 112 | 0.0 | 0.0 | 0.00 | 0.09 | 0.08 | 91 | 1018.6 |
| 20260505230115 | 43 | 337 | 0.0 | 1.0 | 0.00 | 0.10 | 0.08 | 92 | 1018.6 |
| 20260505225115 | 43 | 45 | 0.0 | 0.0 | 0.01 | 0.10 | 0.08 | 92 | 1018.6 |
| 20260505224115 | 43 | 45 | 0.0 | 0.0 | 0.01 | 0.10 | 0.08 | 92 | 1018.5 |
| 20260505223214 | 43 | 67 | 0.0 | 0.0 | 0.01 | 0.10 | 0.08 | 93 | 1018.4 |
| 20260505223116 | 43 | 67 | 0.0 | 0.0 | 0.01 | 0.10 | 0.08 | 92 | 1018.4 |
| 20260505222116 | 43 | 112 | 0.0 | 0.0 | 0.02 | 0.10 | 0.08 | 92 | 1018.4 |
| 20260505221116 | 43 | 112 | 0.0 | 0.0 | 0.02 | 0.10 | 0.08 | 93 | 1018.5 |
| 20260505220114 | 43 | 90 | 1.0 | 4.0 | 0.02 | 0.10 | 0.08 | 93 | 1018.6 |
| 20260505215116 | 43 | 39 | 0.0 | 2.0 | 0.01 | 0.10 | 0.07 | 93 | 1018.5 |
| 20260505213115 | 44 | 112 | 0.0 | 0.0 | 0.01 | 0.11 | 0.07 | 91 | 1018.6 |
| 20260505213015 | 44 | 112 | 0.0 | 0.0 | 0.01 | 0.11 | 0.06 | 91 | 1018.6 |
| 20260505212016 | 44 | 112 | 0.0 | 0.0 | 0.00 | 0.10 | 0.06 | 91 | 1018.6 |
| 20260505211014 | 44 | 112 | 1.0 | 1.0 | 0.00 | 0.10 | 0.06 | 90 | 1018.4 |
| 20260505205015 | 45 | 112 | 0.0 | 0.0 | 0.00 | 0.10 | 0.06 | 90 | 1018.3 |
| 20260505204015 | 45 | 112 | 0.0 | 0.0 | 0.00 | 0.10 | 0.06 | 89 | 1018.1 |
| 20260505203114 | 45 | 112 | 0.0 | 0.0 | 0.00 | 0.10 | 0.06 | 90 | 1018.2 |
| 20260505202115 | 45 | 112 | 0.0 | 0.0 | 0.00 | 0.10 | 0.06 | 89 | 1018.2 |
| 20260505202016 | 45 | 112 | 0.0 | 0.0 | 0.00 | 0.10 | 0.06 | 89 | 1018.1 |
| 20260505200913 | 45 | 103 | 2.0 | 3.0 | 0.00 | 0.10 | 0.06 | 89 | 1018.1 |
| 20260505195915 | 45 | 112 | 0.0 | 0.0 | 0.00 | 0.10 | 0.06 | 91 | 1018.1 |
| 20260505194915 | 45 | 112 | 0.0 | 0.0 | 0.00 | 0.10 | 0.06 | 91 | 1018.1 |
| 20260505193916 | 45 | 90 | 0.0 | 0.0 | 0.00 | 0.10 | 0.06 | 90 | 1017.9 |
| 20260505193016 | 45 | 112 | 0.0 | 1.0 | 0.00 | 0.10 | 0.06 | 91 | 1017.9 |
| 20260505192017 | 45 | 90 | 0.0 | 1.0 | 0.00 | 0.10 | 0.06 | 92 | 1017.8 |
| 20260505191931 | 45 | 90 | 0.0 | 0.0 | 0.00 | 0.10 | 0.06 | 91 | 1017.8 |
| 20260505191016 | 45 | 67 | 1.0 | 1.0 | 0.00 | 0.10 | 0.06 | 92 | 1017.8 |
| 20260505190015 | 45 | 90 | 0.0 | 0.0 | 0.00 | 0.10 | 0.06 | 93 | 1017.8 |
| 20260505184116 | 44 | 112 | 0.0 | 0.0 | 0.01 | 0.11 | 0.06 | 94 | 1017.7 |
| 20260505183116 | 44 | 82 | 2.0 | 2.0 | 0.03 | 0.11 | 0.06 | 96 | 1017.5 |
| 20260505182115 | 44 | 112 | 3.0 | 5.0 | 0.04 | 0.11 | 0.06 | 97 | 1017.4 |
| 20260505180116 | 43 | 315 | 0.0 | 0.0 | 0.04 | 0.12 | 0.06 | 97 | 1017.5 |
| 20260505175116 | 43 | 112 | 0.0 | 0.0 | 0.03 | 0.11 | 0.05 | 97 | 1017.4 |
| 20260505174214 | 43 | 112 | 0.0 | 0.0 | 0.03 | 0.11 | 0.05 | 96 | 1017.4 |
| 20260505173216 | 43 | 112 | 0.0 | 0.0 | 0.01 | 0.10 | 0.03 | 97 | 1017.2 |
| 20260505171315 | 43 | 112 | 0.0 | 0.0 | 0.00 | 0.09 | 0.02 | 97 | 1017.0 |
| 20260505165315 | 43 | 112 | 1.0 | 2.0 | 0.01 | 0.09 | 0.02 | 97 | 1017.0 |
| 20260505164415 | 43 | 112 | 0.0 | 0.0 | 0.01 | 0.09 | 0.02 | 97 | 1016.9 |
| 20260505163414 | 42 | 112 | 0.0 | 0.0 | 0.01 | 0.09 | 0.02 | 96 | 1016.8 |
| 20260505162416 | 43 | 112 | 0.0 | 0.0 | 0.01 | 0.10 | 0.02 | 98 | 1016.8 |
| 20260505160514 | 42 | 112 | 0.0 | 0.0 | 0.01 | 0.10 | 0.02 | 98 | 1016.7 |
| 20260505152416 | 42 | 90 | 0.0 | 0.0 | 0.00 | 0.09 | 0.01 | 98 | 1016.3 |
| 20260505151416 | 41 | 90 | 0.0 | 0.0 | 0.00 | 0.09 | 0.01 | 98 | 1016.2 |
| 20260505140615 | 41 | 90 | 0.0 | 0.0 | 0.00 | 0.09 | 0.01 | 97 | 1015.7 |
| 20260505124714 | 41 | 90 | 0.0 | 0.0 | 0.01 | 0.10 | 0.01 | 98 | 1015.2 |
| 20260505121814 | 41 | 90 | 0.0 | 0.0 | 0.00 | 0.09 | 0.00 | 97 | 1015.2 |
| 20260505120815 | 41 | 90 | 0.0 | 0.0 | 0.00 | 0.09 | 0.00 | 98 | 1015.3 |
| 20260505115816 | 41 | 90 | 0.0 | 0.0 | 0.00 | 0.09 | 0.00 | 98 | 1015.3 |
| 20260505114815 | 41 | 90 | 0.0 | 0.0 | 0.00 | 0.09 | 0.00 | 98 | 1015.1 |
| 20260505113815 | 41 | 90 | 0.0 | 0.0 | 0.00 | 0.09 | 0.00 | 98 | 1015.4 |
| 20260505112813 | 41 | 90 | 0.0 | 0.0 | 0.00 | 0.09 | 0.00 | 97 | 1015.4 |
| 20260505111816 | 41 | 90 | 0.0 | 0.0 | 0.00 | 0.09 | 0.00 | 98 | 1015.4 |
| 20260505101717 | 41 | 90 | 0.0 | 0.0 | 0.00 | 0.09 | 0.00 | 98 | 1015.7 |
| 20260505100815 | 41 | 90 | 0.0 | 0.0 | 0.00 | 0.09 | 0.00 | 98 | 1015.5 |
| 20260505095815 | 41 | 90 | 0.0 | 0.0 | 0.00 | 0.09 | 0.00 | 97 | 1015.5 |
| 20260505094814 | 41 | 90 | 0.0 | 0.0 | 0.00 | 0.09 | 0.00 | 97 | 1015.6 |
| 20260505093814 | 41 | 90 | 0.0 | 0.0 | 0.00 | 0.09 | 0.00 | 96 | 1015.7 |
| 20260505091815 | 41 | 90 | 0.0 | 0.0 | 0.00 | 0.09 | 0.00 | 97 | 1015.7 |